Time;durP1;ratioP1;P1;durP2;ratioP2;P2;SDS_P1;SDS_P2;PMS_P1;PMS_P2;Temp;Humidity;BMP_temperature;BMP_pressure;BME280_temperature;BME280_humidity;BME280_pressure;Samples;Min_cycle;Max_cycle;Signal;HPM_P1;HPM_P2
2023/02/25 00:01:13;;;;;;;44.42;22.77;;;;;;;5.00;87.44;100370.22;4977717;28;20117;-86
2023/02/25 00:03:40;;;;;;;41.58;21.88;;;;;;;4.93;87.40;100358.41;4958216;28;20042;-86
2023/02/25 00:06:08;;;;;;;46.42;22.20;;;;;;;5.08;87.21;100370.44;4972563;28;20056;-85
2023/02/25 00:08:34;;;;;;;39.03;19.70;;;;;;;5.04;86.97;100358.34;4985642;28;20094;-87
2023/02/25 00:11:03;;;;;;;41.38;19.92;;;;;;;5.13;86.41;100360.22;4956073;28;20038;-85
2023/02/25 00:13:28;;;;;;;46.40;20.83;;;;;;;5.21;86.12;100363.03;4987625;28;20046;-87
2023/02/25 00:15:57;;;;;;;38.00;19.67;;;;;;;5.14;86.50;100359.22;4992405;28;20038;-86
2023/02/25 00:18:26;;;;;;;46.20;20.15;;;;;;;5.14;86.56;100351.22;4973751;28;20125;-83
2023/02/25 00:20:51;;;;;;;38.30;20.45;;;;;;;5.07;85.82;100331.41;4989701;28;20034;-84
2023/02/25 00:23:17;;;;;;;36.33;18.33;;;;;;;5.21;86.00;100352.38;4990276;28;20061;-83
2023/02/25 00:25:44;;;;;;;38.88;18.45;;;;;;;5.23;85.54;100334.44;4994244;28;20038;-84
2023/02/25 00:28:11;;;;;;;43.63;18.77;;;;;;;5.32;84.92;100340.78;4991982;28;20040;-85
2023/02/25 00:30:43;;;;;;;38.65;20.00;;;;;;;5.19;85.46;100332.16;4968267;28;20038;-87
2023/02/25 00:33:12;;;;;;;37.55;19.33;;;;;;;5.08;85.70;100325.97;4989228;28;20038;-87
2023/02/25 00:35:40;;;;;;;42.20;21.10;;;;;;;5.12;86.54;100331.84;4964602;28;20092;-88
2023/02/25 00:38:06;;;;;;;41.33;20.73;;;;;;;5.04;86.48;100329.03;4985208;28;20131;-89
2023/02/25 00:40:32;;;;;;;;;;;;;;;5.15;86.39;100328.06;4988234;28;20030;-86
2023/02/25 00:42:59;;;;;;;39.55;20.30;;;;;;;5.08;86.46;100319.81;4990699;28;19914;-87
2023/02/25 00:45:24;;;;;;;45.28;21.17;;;;;;;4.86;87.37;100316.31;4988416;28;20065;-87
2023/02/25 00:47:51;;;;;;;47.67;21.65;;;;;;;4.92;87.83;100319.44;4993364;28;20077;-86
2023/02/25 00:50:19;;;;;;;50.10;23.50;;;;;;;4.81;87.87;100313.22;5003184;28;20144;-87
2023/02/25 00:52:46;;;;;;;49.00;24.45;;;;;;;4.77;87.44;100301.13;4991322;28;20058;-86
2023/02/25 00:55:12;;;;;;;46.55;25.92;;;;;;;4.93;86.92;100315.78;4971412;28;20038;-88
2023/02/25 00:57:38;;;;;;;52.65;27.58;;;;;;;4.90;86.54;100308.06;4963833;28;20480;-86
2023/02/25 01:00:15;;;;;;;56.88;29.48;;;;;;;4.72;86.13;100281.19;5000546;28;20112;-88
2023/02/25 01:02:45;;;;;;;52.10;29.75;;;;;;;4.77;86.24;100314.44;4987571;28;20186;-86
2023/02/25 01:05:12;;;;;;;58.22;29.00;;;;;;;4.90;85.72;100311.56;5012183;28;20037;-87
2023/02/25 01:07:39;;;;;;;55.90;29.08;;;;;;;4.84;85.61;100302.28;4991805;28;20363;-87
2023/02/25 01:10:05;;;;;;;58.20;28.88;;;;;;;4.84;85.13;100299.63;5007885;28;20130;-85
2023/02/25 01:12:32;;;;;;;48.58;26.77;;;;;;;4.92;84.65;100295.47;4996418;28;20033;-86
2023/02/25 01:14:57;;;;;;;57.65;28.85;;;;;;;4.77;85.17;100295.78;4986948;28;20045;-86
2023/02/25 01:17:23;;;;;;;52.90;28.83;;;;;;;4.80;84.89;100286.69;4993255;28;20025;-86
2023/02/25 01:19:48;;;;;;;59.93;30.20;;;;;;;4.83;84.99;100283.78;5002465;28;20053;-87
2023/02/25 01:22:14;;;;;;;53.10;29.23;;;;;;;4.68;84.61;100269.13;4960269;28;20108;-86
2023/02/25 01:24:39;;;;;;;55.92;29.02;;;;;;;4.73;84.66;100270.44;4985203;28;20467;-87
2023/02/25 01:27:08;;;;;;;56.88;29.80;;;;;;;4.68;84.59;100274.44;4971805;28;20140;-85
2023/02/25 01:29:37;;;;;;;54.50;28.73;;;;;;;4.70;84.58;100276.00;5001969;28;20041;-86
2023/02/25 01:32:04;;;;;;;54.88;28.98;;;;;;;4.67;85.00;100273.59;5009274;28;20026;-85
2023/02/25 01:34:30;;;;;;;55.65;28.63;;;;;;;4.76;84.58;100267.50;4977278;28;20129;-86
2023/02/25 01:36:57;;;;;;;57.20;27.35;;;;;;;4.72;84.13;100251.91;4961925;28;20046;-87
2023/02/25 01:39:22;;;;;;;52.33;26.58;;;;;;;4.65;84.32;100243.59;5006074;28;20053;-87
2023/02/25 01:41:49;;;;;;;49.67;26.52;;;;;;;4.63;84.41;100256.19;4988434;28;20042;-87
2023/02/25 01:44:19;;;;;;;53.13;26.00;;;;;;;4.69;84.66;100253.03;4989087;28;20049;-86
2023/02/25 01:46:52;;;;;;;44.78;23.02;;;;;;;4.73;84.51;100262.44;4977920;28;20034;-88
2023/02/25 01:49:34;;;;;;;46.55;23.50;;;;;;;4.62;84.61;100244.72;4988486;28;20038;-85
2023/02/25 01:52:15;;;;;;;41.50;21.83;;;;;;;4.68;84.80;100259.31;5009619;28;20065;-86
2023/02/25 01:54:44;;;;;;;45.10;21.27;;;;;;;4.60;84.52;100246.66;4991941;28;20136;-86
2023/02/25 01:57:12;;;;;;;37.90;20.23;;;;;;;4.56;86.02;100261.19;4961358;28;20050;-85
2023/02/25 01:59:40;;;;;;;44.58;21.85;;;;;;;4.45;87.04;100253.31;4977538;28;20082;-86
2023/02/25 02:02:11;;;;;;;43.58;21.13;;;;;;;4.48;87.37;100260.19;4972959;28;20096;-84
2023/02/25 02:04:37;;;;;;;39.05;20.90;;;;;;;4.42;87.61;100253.56;4968186;28;20128;-84
2023/02/25 02:07:06;;;;;;;41.58;21.92;;;;;;;4.58;87.63;100247.78;4989896;28;20062;-84
2023/02/25 02:09:32;;;;;;;43.95;21.77;;;;;;;4.44;87.27;100233.81;4991062;28;20140;-83
2023/02/25 02:12:03;;;;;;;46.70;22.58;;;;;;;4.56;86.97;100244.41;4989122;28;20422;-83
2023/02/25 02:14:34;;;;;;;40.65;20.83;;;;;;;4.58;86.21;100215.81;4965484;28;20038;-83
2023/02/25 02:17:22;;;;;;;42.80;21.52;;;;;;;4.85;86.17;100244.53;4955205;28;20180;-87
2023/02/25 02:19:48;;;;;;;41.78;20.83;;;;;;;4.81;86.19;100259.09;4979571;28;20140;-87
2023/02/25 02:22:22;;;;;;;40.25;20.90;;;;;;;4.66;86.27;100232.00;5015886;28;20038;-86
2023/02/25 02:25:22;;;;;;;39.75;20.00;;;;;;;4.68;86.74;100243.31;4987728;28;20096;-86
2023/02/25 02:28:28;;;;;;;36.42;17.67;;;;;;;4.79;86.46;100251.22;5004877;28;20080;-82
2023/02/25 02:31:13;;;;;;;34.90;16.80;;;;;;;4.66;87.21;100250.63;4958390;28;20215;-82
2023/02/25 02:34:06;;;;;;;51.28;23.73;;;;;;;4.78;87.01;100251.38;4991146;28;20042;-83
2023/02/25 02:37:08;;;;;;;34.85;17.20;;;;;;;4.57;87.05;100236.28;5001754;28;20068;-82
2023/02/25 02:39:46;;;;;;;34.80;17.23;;;;;;;4.60;87.43;100235.16;4981098;28;20050;-83
2023/02/25 02:42:58;;;;;;;37.85;17.95;;;;;;;4.63;87.11;100240.22;4991431;28;20041;-83
2023/02/25 02:45:33;;;;;;;39.08;17.83;;;;;;;4.63;86.82;100238.41;4976958;28;20046;-82
2023/02/25 02:48:04;;;;;;;34.50;18.08;;;;;;;4.48;86.67;100193.66;5008466;28;20113;-83
2023/02/25 02:50:36;;;;;;;43.20;18.33;;;;;;;4.39;87.08;100198.78;4976961;28;20032;-83
2023/02/25 02:53:31;;;;;;;36.28;18.20;;;;;;;4.65;86.69;100209.81;4996530;28;20435;-83
2023/02/25 02:55:58;;;;;;;38.40;17.55;;;;;;;4.70;86.23;100213.91;5004690;28;20167;-83
2023/02/25 02:58:28;;;;;;;35.30;18.27;;;;;;;4.78;86.01;100206.09;4996889;28;20052;-81
2023/02/25 03:01:23;;;;;;;40.35;18.50;;;;;;;4.81;85.86;100209.31;4990924;28;20075;-82
2023/02/25 03:03:51;;;;;;;39.80;17.17;;;;;;;4.79;86.18;100211.28;5005170;28;20141;-84
2023/02/25 03:06:20;;;;;;;39.97;16.92;;;;;;;4.68;86.69;100207.88;4974333;28;20061;-82
2023/02/25 03:08:49;;;;;;;36.60;16.77;;;;;;;4.70;86.97;100211.25;4977469;28;20557;-82
2023/02/25 03:11:17;;;;;;;39.42;15.75;;;;;;;4.65;87.50;100214.31;4978345;28;20034;-83
2023/02/25 03:13:43;;;;;;;32.17;16.67;;;;;;;4.62;87.75;100214.59;5000662;28;20116;-83
2023/02/25 03:16:11;;;;;;;35.63;17.03;;;;;;;4.64;87.90;100208.16;4994307;28;20022;-83
2023/02/25 03:18:40;;;;;;;35.00;16.73;;;;;;;4.62;88.35;100215.41;4977704;28;20038;-84
2023/02/25 03:21:10;;;;;;;35.38;16.75;;;;;;;4.67;87.72;100209.69;4990536;28;20050;-84
2023/02/25 03:23:36;;;;;;;34.22;16.27;;;;;;;4.67;87.49;100196.38;4978232;28;20100;-85
2023/02/25 03:26:35;;;;;;;39.08;17.08;;;;;;;4.68;87.74;100211.38;4978361;28;20037;-83
2023/02/25 03:29:03;;;;;;;40.78;16.30;;;;;;;4.69;87.12;100213.06;4966650;28;20224;-85
2023/02/25 03:31:35;;;;;;;33.55;16.08;;;;;;;4.76;87.05;100206.22;5010238;28;20038;-85
2023/02/25 03:34:10;;;;;;;35.97;17.25;;;;;;;4.64;87.17;100183.34;4994013;28;20468;-86
2023/02/25 03:36:37;;;;;;;32.92;17.48;;;;;;;4.68;87.73;100200.72;4956972;28;20042;-85
2023/02/25 03:39:11;;;;;;;31.42;17.00;;;;;;;4.57;87.52;100180.38;4971635;28;20038;-86
2023/02/25 03:41:39;;;;;;;33.13;16.25;;;;;;;4.72;87.49;100191.50;4961193;28;20031;-86
2023/02/25 03:44:09;;;;;;;32.67;16.88;;;;;;;4.83;87.24;100203.88;4988308;28;20144;-85
2023/02/25 03:46:34;;;;;;;33.92;16.75;;;;;;;4.77;87.20;100191.91;4969539;28;20439;-85
2023/02/25 03:49:03;;;;;;;35.00;17.70;;;;;;;4.50;87.83;100181.06;4979995;28;20041;-82
2023/02/25 03:51:30;;;;;;;35.95;17.27;;;;;;;4.60;87.88;100179.25;5010315;28;20040;-83
2023/02/25 03:53:56;;;;;;;32.80;16.92;;;;;;;4.61;87.75;100173.81;4976657;28;20057;-83
2023/02/25 03:56:22;;;;;;;38.92;18.63;;;;;;;4.59;88.17;100194.41;4990858;28;20417;-84
2023/02/25 03:58:49;;;;;;;35.75;17.52;;;;;;;4.51;88.29;100188.03;5001094;28;20037;-83
2023/02/25 04:01:26;;;;;;;32.88;17.35;;;;;;;4.45;87.85;100170.81;4973405;28;20068;-83
2023/02/25 04:03:54;;;;;;;34.13;17.02;;;;;;;4.62;88.01;100179.97;4960716;28;20121;-82
2023/02/25 04:06:21;;;;;;;37.33;17.88;;;;;;;4.38;87.73;100159.84;4976479;28;20057;-82
2023/02/25 04:08:47;;;;;;;31.40;17.33;;;;;;;4.64;87.60;100178.03;4984506;28;20175;-83
2023/02/25 04:11:14;;;;;;;35.10;17.85;;;;;;;4.63;87.49;100182.47;4999362;28;20037;-82
2023/02/25 04:13:39;;;;;;;38.35;17.67;;;;;;;4.58;87.71;100174.06;4978303;28;20575;-84
2023/02/25 04:16:07;;;;;;;34.77;17.40;;;;;;;4.52;87.31;100147.13;4991203;28;20037;-84
2023/02/25 04:18:32;;;;;;;36.95;17.83;;;;;;;4.72;87.06;100167.53;4980572;28;20772;-84
2023/02/25 04:20:59;;;;;;;35.85;16.85;;;;;;;4.70;86.98;100174.81;4993763;28;20128;-83
2023/02/25 04:23:26;;;;;;;34.13;17.63;;;;;;;4.69;86.78;100170.47;5021663;28;20118;-82
2023/02/25 04:25:54;;;;;;;33.85;17.02;;;;;;;4.71;86.86;100168.50;4991117;28;20029;-86
2023/02/25 04:28:20;;;;;;;35.65;17.70;;;;;;;4.64;87.05;100162.03;4978391;28;20125;-86
2023/02/25 04:30:47;;;;;;;33.03;17.17;;;;;;;4.77;86.94;100157.28;4992620;28;20042;-86
2023/02/25 04:33:17;;;;;;;33.60;18.17;;;;;;;4.72;87.35;100172.84;4981717;28;20045;-85
2023/02/25 04:35:44;;;;;;;35.55;17.27;;;;;;;4.62;86.59;100142.69;5016091;28;20072;-85
2023/02/25 04:38:09;;;;;;;37.22;17.70;;;;;;;4.69;86.93;100167.81;5001371;28;20159;-87
2023/02/25 04:40:38;;;;;;;37.03;18.77;;;;;;;4.65;87.00;100161.06;5001564;28;20068;-86
2023/02/25 04:43:05;;;;;;;36.75;18.85;;;;;;;4.61;86.99;100146.31;5010678;28;20336;-85
2023/02/25 04:45:31;;;;;;;37.42;18.48;;;;;;;4.83;86.44;100154.09;4981872;28;20046;-87
2023/02/25 04:48:01;;;;;;;33.17;18.80;;;;;;;4.89;86.01;100165.19;5019415;28;20038;-83
2023/02/25 04:50:27;;;;;;;39.58;19.73;;;;;;;4.83;86.03;100151.44;5010939;28;20052;-84
2023/02/25 04:52:53;;;;;;;40.30;19.90;;;;;;;4.79;85.99;100155.34;4975061;28;20041;-86
2023/02/25 04:55:18;;;;;;;38.83;20.42;;;;;;;4.98;85.27;100156.38;4989614;28;20108;-83
2023/02/25 04:57:44;;;;;;;36.90;19.03;;;;;;;5.02;84.80;100161.28;5009202;28;20479;-83
2023/02/25 05:00:22;;;;;;;41.47;19.27;;;;;;;4.99;84.82;100160.75;4991279;28;20161;-85
2023/02/25 05:02:49;;;;;;;41.85;19.98;;;;;;;5.07;84.69;100163.53;5008091;28;20289;-88
2023/02/25 05:05:15;;;;;;;38.15;20.00;;;;;;;5.16;84.85;100157.38;4973031;28;20140;-89
2023/02/25 05:07:43;;;;;;;37.00;19.45;;;;;;;5.19;85.00;100161.59;4974627;28;20434;-90
2023/02/25 05:10:11;;;;;;;45.42;20.83;;;;;;;5.17;84.06;100152.91;4969799;28;20061;-85
2023/02/25 05:12:37;;;;;;;38.55;20.33;;;;;;;5.24;83.71;100154.88;5002887;28;20542;-87
2023/02/25 05:15:04;;;;;;;45.80;20.30;;;;;;;5.33;83.75;100165.69;4990499;28;20057;-81
2023/02/25 05:17:33;;;;;;;45.85;22.35;;;;;;;5.32;83.39;100162.19;5007105;28;20038;-85
2023/02/25 05:20:00;;;;;;;50.00;21.90;;;;;;;5.11;83.44;100143.66;4992795;28;20040;-86
2023/02/25 05:22:26;;;;;;;41.05;20.60;;;;;;;5.38;83.01;100160.78;4989086;28;20065;-85
2023/02/25 05:24:51;;;;;;;43.28;20.90;;;;;;;5.44;82.81;100165.56;5005488;28;20033;-84
2023/02/25 05:27:19;;;;;;;42.05;21.38;;;;;;;5.40;82.78;100156.16;5006136;28;20114;-84
2023/02/25 05:29:45;;;;;;;45.05;21.15;;;;;;;5.52;83.22;100157.69;5004099;28;20050;-80
2023/02/25 05:32:10;;;;;;;43.37;21.23;;;;;;;5.45;83.79;100162.72;4985075;28;20033;-89
2023/02/25 05:34:37;;;;;;;40.97;21.58;;;;;;;5.70;83.37;100161.31;4986152;28;20030;-84
2023/02/25 05:37:03;;;;;;;42.97;21.83;;;;;;;5.84;83.56;100161.88;5003884;28;20174;-79
2023/02/25 05:39:28;;;;;;;44.77;22.43;;;;;;;6.06;83.06;100161.59;5009335;28;20038;-87
2023/02/25 05:41:54;;;;;;;45.87;22.37;;;;;;;6.21;81.94;100161.97;4983769;28;20284;-87
2023/02/25 05:44:19;;;;;;;45.08;21.88;;;;;;;6.26;81.39;100126.84;4992935;28;20397;-87
2023/02/25 05:46:45;;;;;;;47.07;22.03;;;;;;;6.67;80.60;100159.41;4969031;28;20045;-85
2023/02/25 05:49:11;;;;;;;41.67;21.80;;;;;;;6.74;80.68;100160.50;5008591;28;20293;-87
2023/02/25 05:51:37;;;;;;;44.08;22.73;;;;;;;6.83;80.39;100148.09;4990434;28;20069;-84
2023/02/25 05:54:03;;;;;;;38.53;21.53;;;;;;;7.21;80.01;100156.84;4973723;28;20084;-84
2023/02/25 05:56:29;;;;;;;38.90;21.23;;;;;;;7.42;79.55;100153.88;4974296;28;20034;-87
2023/02/25 05:59:00;;;;;;;43.28;22.05;;;;;;;7.54;78.06;100136.63;4955379;28;20056;-90
2023/02/25 06:01:28;;;;;;;42.38;21.90;;;;;;;7.75;77.31;100117.53;5009652;28;20076;-85
2023/02/25 06:03:57;;;;;;;38.17;22.05;;;;;;;8.18;76.51;100148.78;4964502;28;20090;-83
2023/02/25 06:06:23;;;;;;;38.80;21.92;;;;;;;8.84;73.47;100120.50;4970653;28;20444;-86
2023/02/25 06:08:50;;;;;;;42.17;22.05;;;;;;;10.35;68.96;100150.59;5005213;28;20147;-87
2023/02/25 06:11:23;;;;;;;36.50;21.45;;;;;;;11.81;65.11;100149.94;4976546;28;20049;-87
2023/02/25 06:13:52;;;;;;;37.22;21.65;;;;;;;12.98;60.87;100144.00;5001840;28;20113;-83
2023/02/25 06:16:17;;;;;;;38.65;21.60;;;;;;;14.01;56.37;100155.44;5007022;28;20077;-85
2023/02/25 06:18:45;;;;;;;43.00;22.98;;;;;;;14.93;52.23;100150.84;4952446;28;20515;-87
2023/02/25 06:21:11;;;;;;;40.67;23.35;;;;;;;15.74;49.09;100158.16;4978614;28;20260;-87
2023/02/25 06:23:42;;;;;;;41.65;24.50;;;;;;;16.62;46.93;100166.88;4983187;28;20033;-86
2023/02/25 06:26:10;;;;;;;42.45;25.17;;;;;;;17.51;44.08;100157.13;4952865;28;20042;-86
2023/02/25 06:28:37;;;;;;;42.13;26.50;;;;;;;18.12;42.22;100149.34;5005535;28;20049;-88
2023/02/25 06:31:08;;;;;;;44.42;26.73;;;;;;;18.70;40.88;100157.13;5008779;28;20467;-89
2023/02/25 06:33:44;;;;;;;46.17;26.05;;;;;;;19.02;39.76;100162.47;4972752;28;20026;-90
2023/02/25 06:36:10;;;;;;;43.40;26.33;;;;;;;19.27;38.64;100156.06;5007045;28;20038;-87
2023/02/25 06:38:36;;;;;;;;;;;;;;;19.72;37.65;100150.22;4994372;28;20091;-84
2023/02/25 06:41:09;;;;;;;42.50;25.58;;;;;;;20.11;36.22;100146.00;5005647;28;19924;-82
2023/02/25 06:43:35;;;;;;;39.97;25.90;;;;;;;20.64;35.83;100147.78;5002365;28;20517;-79
2023/02/25 06:46:21;;;;;;;44.10;25.58;;;;;;;20.65;35.20;100134.97;4987523;28;20046;-87
2023/02/25 06:48:46;;;;;;;38.08;25.63;;;;;;;21.26;33.98;100152.63;4975962;28;20052;-84
2023/02/25 06:51:15;;;;;;;39.90;25.70;;;;;;;21.72;33.56;100144.44;5002296;28;20030;-85
2023/02/25 06:53:43;;;;;;;43.00;25.98;;;;;;;22.29;33.22;100152.53;4998616;28;20046;-87
2023/02/25 06:56:25;;;;;;;50.78;26.98;;;;;;;22.81;31.99;100151.31;5012151;28;20042;-85
2023/02/25 06:58:52;;;;;;;46.17;26.27;;;;;;;23.12;30.90;100129.81;5018729;28;20042;-82
2023/02/25 07:01:20;;;;;;;38.50;25.58;;;;;;;23.71;30.42;100149.06;5011695;28;20118;-86
2023/02/25 07:04:15;;;;;;;41.20;24.88;;;;;;;24.03;29.35;100140.03;4987774;28;20084;-88
2023/02/25 07:06:42;;;;;;;40.40;23.85;;;;;;;24.31;29.28;100138.84;4992472;28;20140;-88
2023/02/25 07:09:15;;;;;;;42.38;24.02;;;;;;;24.60;29.02;100153.06;4991133;28;20124;-85
2023/02/25 07:11:43;;;;;;;35.05;24.23;;;;;;;24.52;29.16;100153.56;4984330;28;20108;-88
2023/02/25 07:14:11;;;;;;;37.08;23.25;;;;;;;24.50;29.50;100149.44;5007334;28;20092;-85
2023/02/25 07:16:36;;;;;;;38.35;23.15;;;;;;;24.76;28.69;100144.91;4963202;28;20476;-84
2023/02/25 07:19:06;;;;;;;35.17;21.00;;;;;;;24.21;29.16;100120.41;5007358;28;20046;-84
2023/02/25 07:21:33;;;;;;;34.42;21.52;;;;;;;24.31;29.19;100149.03;4956255;28;20031;-87
2023/02/25 07:23:59;;;;;;;33.50;21.15;;;;;;;23.97;29.95;100147.38;4986254;28;20051;-83
2023/02/25 07:26:29;;;;;;;34.00;20.95;;;;;;;24.05;29.92;100140.59;5009295;28;20034;-83
2023/02/25 07:29:00;;;;;;;30.92;19.67;;;;;;;23.25;31.10;100140.38;4972319;28;20038;-83
2023/02/25 07:31:28;;;;;;;32.70;20.00;;;;;;;23.01;31.17;100136.25;4999593;28;20041;-89
2023/02/25 07:33:53;;;;;;;34.65;19.90;;;;;;;23.16;31.57;100125.47;5010783;28;20063;-85
2023/02/25 07:36:20;;;;;;;29.23;19.20;;;;;;;23.24;31.06;100126.91;4971824;28;20027;-86
2023/02/25 07:38:49;;;;;;;33.78;20.00;;;;;;;23.38;30.77;100107.03;4972590;28;20080;-85
2023/02/25 07:41:18;;;;;;;30.05;19.75;;;;;;;23.64;31.14;100126.47;4978840;28;20026;-91
2023/02/25 07:43:46;;;;;;;29.58;19.85;;;;;;;23.78;31.38;100133.22;4993367;28;20041;-84
2023/02/25 07:46:14;;;;;;;28.23;19.55;;;;;;;23.73;30.94;100133.16;4979135;28;20037;-80
2023/02/25 07:48:41;;;;;;;34.78;19.20;;;;;;;24.61;30.11;100126.44;4968602;28;20034;-87
2023/02/25 07:51:10;;;;;;;39.65;19.60;;;;;;;25.21;28.99;100115.94;4987056;28;20120;-84
2023/02/25 07:53:37;;;;;;;33.47;20.92;;;;;;;25.89;27.85;100116.63;4993705;28;20041;-85
2023/02/25 07:56:04;;;;;;;29.70;19.95;;;;;;;26.49;27.34;100118.72;5006115;28;20092;-86
2023/02/25 07:58:33;;;;;;;35.83;19.33;;;;;;;27.01;26.91;100116.63;4997036;28;20431;-88
2023/02/25 08:01:02;;;;;;;31.85;20.63;;;;;;;27.02;25.93;100116.34;5011563;28;20141;-88
2023/02/25 08:03:28;;;;;;;27.80;18.98;;;;;;;27.07;26.12;100118.25;4976531;28;20054;-88
2023/02/25 08:05:56;;;;;;;31.70;18.98;;;;;;;27.70;25.21;100118.41;5011596;28;20054;-92
2023/02/25 08:08:50;;;;;;;30.80;19.05;;;;;;;26.74;26.28;100109.56;4980624;28;20135;-91
2023/02/25 08:11:20;;;;;;;26.17;18.05;;;;;;;26.60;26.85;100109.34;5012566;28;20524;-92
2023/02/25 08:13:45;;;;;;;31.90;18.75;;;;;;;26.17;27.61;100105.28;4961031;28;20236;-88
2023/02/25 08:16:14;;;;;;;31.23;18.48;;;;;;;27.14;26.12;100103.03;4957077;28;20196;-80
2023/02/25 08:18:42;;;;;;;28.88;19.13;;;;;;;27.26;26.02;100096.38;4991033;28;20382;-85
2023/02/25 08:21:31;;;;;;;25.27;17.85;;;;;;;26.70;26.59;100087.25;4990110;28;20069;-85
2023/02/25 08:23:57;;;;;;;26.45;17.75;;;;;;;27.48;25.59;100090.41;5002783;28;20093;-86
2023/02/25 08:26:23;;;;;;;26.17;18.23;;;;;;;27.13;25.93;100078.47;4973235;28;20483;-86
2023/02/25 08:28:50;;;;;;;27.30;18.30;;;;;;;28.09;24.65;100089.09;4972299;28;20046;-85
2023/02/25 08:31:18;;;;;;;26.95;18.25;;;;;;;28.31;24.43;100086.66;5013918;28;20106;-85
2023/02/25 08:33:51;;;;;;;29.80;17.90;;;;;;;28.06;24.68;100062.88;4990368;28;20040;-87
2023/02/25 08:36:22;;;;;;;27.38;17.73;;;;;;;27.43;25.18;100079.41;5006522;28;20053;-93
2023/02/25 08:38:49;;;;;;;25.65;15.70;;;;;;;28.40;23.84;100062.78;4984307;28;20542;-87
2023/02/25 08:41:17;;;;;;;24.33;16.23;;;;;;;29.26;23.23;100061.97;4986145;28;20037;-87
2023/02/25 08:43:43;;;;;;;22.48;15.60;;;;;;;30.43;21.93;100056.34;4982575;28;20085;-86
2023/02/25 08:46:11;;;;;;;23.23;14.88;;;;;;;30.46;21.42;100049.34;4982887;28;20112;-82
2023/02/25 08:48:36;;;;;;;23.40;14.90;;;;;;;29.62;22.22;100042.84;4985917;28;20096;-88
2023/02/25 08:51:08;;;;;;;26.42;15.65;;;;;;;29.98;21.55;100041.41;4973172;28;20022;-86
2023/02/25 08:54:00;;;;;;;25.00;14.48;;;;;;;29.80;21.91;100040.34;4963088;28;20022;-86
2023/02/25 08:56:26;;;;;;;29.13;14.32;;;;;;;31.05;20.51;100039.22;4991510;28;20045;-86
2023/02/25 08:58:53;;;;;;;23.75;13.93;;;;;;;30.92;19.95;100029.78;4969476;28;20391;-87
2023/02/25 09:01:19;;;;;;;26.17;13.32;;;;;;;32.08;19.27;100015.28;4960354;28;20050;-86
2023/02/25 09:03:53;;;;;;;22.65;13.82;;;;;;;31.34;20.03;100029.66;4984510;28;20026;-86
2023/02/25 09:06:23;;;;;;;25.75;16.73;;;;;;;31.85;19.40;100008.91;4984033;28;20045;-87
2023/02/25 09:08:50;;;;;;;29.00;15.15;;;;;;;31.99;19.30;99999.69;4987156;28;20037;-85
2023/02/25 09:11:18;;;;;;;19.20;12.65;;;;;;;31.67;18.66;99984.97;4967133;28;20183;-84
2023/02/25 09:13:44;;;;;;;23.92;12.90;;;;;;;31.12;19.26;99994.38;4995033;28;20069;-84
2023/02/25 09:16:18;;;;;;;19.08;12.55;;;;;;;31.33;19.57;99994.69;5010540;28;20030;-85
2023/02/25 09:18:45;;;;;;;20.60;13.25;;;;;;;31.53;19.53;99987.81;5023330;28;20044;-83
2023/02/25 09:21:13;;;;;;;24.83;14.05;;;;;;;31.26;19.52;99984.03;4999713;28;20049;-86
2023/02/25 09:23:39;;;;;;;21.65;12.77;;;;;;;32.50;18.44;99975.94;4969842;28;20057;-93
2023/02/25 09:26:05;;;;;;;18.38;12.57;;;;;;;32.21;18.28;99957.91;4971753;28;20061;-87
2023/02/25 09:28:59;;;;;;;21.63;12.88;;;;;;;33.08;17.55;99955.25;4965372;28;20043;-91
2023/02/25 09:31:26;;;;;;;29.63;13.00;;;;;;;33.46;17.73;99950.91;5006138;28;20041;-87
2023/02/25 09:33:54;;;;;;;24.30;12.98;;;;;;;33.13;17.42;99962.59;4970602;28;20042;-86
2023/02/25 09:36:20;;;;;;;16.40;11.77;;;;;;;31.08;18.89;99935.88;4973763;28;20031;-85
2023/02/25 09:38:49;;;;;;;21.77;11.80;;;;;;;31.74;18.64;99958.34;4989210;28;20442;-85
2023/02/25 09:41:42;;;;;;;20.73;11.10;;;;;;;32.48;17.68;99940.13;4976716;28;20414;-86
2023/02/25 09:44:44;;;;;;;20.42;11.48;;;;;;;31.26;18.80;99950.72;4988745;28;20044;-86
2023/02/25 09:47:37;;;;;;;23.95;10.57;;;;;;;30.13;20.25;99946.03;4931945;29;20131;-84
2023/02/25 09:50:06;;;;;;;21.60;11.32;;;;;;;30.05;20.45;99939.28;4967668;28;20050;-86
2023/02/25 09:52:42;;;;;;;25.38;14.05;;;;;;;31.20;18.96;99929.75;5005702;28;20037;-85
2023/02/25 09:55:29;;;;;;;26.33;11.38;;;;;;;29.84;20.39;99939.69;4971427;28;20491;-88
2023/02/25 09:58:10;;;;;;;18.52;10.98;;;;;;;28.56;21.76;99927.13;4964982;28;20034;-83
2023/02/25 10:00:44;;;;;;;22.17;10.93;;;;;;;28.64;21.74;99917.38;4992523;28;20496;-84
2023/02/25 10:03:17;;;;;;;19.65;11.10;;;;;;;29.83;20.67;99915.06;4993563;28;20558;-84
2023/02/25 10:06:15;;;;;;;24.50;11.23;;;;;;;30.08;19.99;99903.44;4978191;28;20039;-90
2023/02/25 10:09:12;;;;;;;25.10;11.07;;;;;;;30.34;19.75;99904.88;5010776;28;20092;-86
2023/02/25 10:11:52;;;;;;;18.83;10.82;;;;;;;31.91;18.42;99890.91;4972887;28;20053;-89
2023/02/25 10:14:42;;;;;;;21.60;9.75;;;;;;;30.75;19.62;99901.97;4997691;28;20379;-89
2023/02/25 10:17:26;;;;;;;29.85;10.02;;;;;;;31.17;19.19;99888.75;5006847;28;20038;-88
2023/02/25 10:20:44;;;;;;;22.17;10.70;;;;;;;30.40;19.81;99885.03;5003366;28;20037;-90
2023/02/25 10:23:16;;;;;;;19.92;10.02;;;;;;;30.64;19.65;99872.84;4974781;28;20034;-91
2023/02/25 10:25:57;;;;;;;20.38;9.90;;;;;;;29.80;20.54;99866.63;5016607;28;20042;-89
2023/02/25 10:28:22;;;;;;;25.15;9.93;;;;;;;30.79;19.69;99864.16;5024106;28;20133;-88
2023/02/25 10:31:15;;;;;;;22.95;9.90;;;;;;;30.96;19.41;99859.91;4961516;28;20058;-89
2023/02/25 10:33:45;;;;;;;21.65;10.35;;;;;;;31.18;19.16;99837.63;4988459;28;20494;-88
2023/02/25 10:36:30;;;;;;;35.78;10.10;;;;;;;31.85;18.61;99844.16;4998340;28;20033;-88
2023/02/25 10:38:56;;;;;;;22.02;10.27;;;;;;;32.38;18.06;99829.16;5004113;28;20042;-86
2023/02/25 10:41:26;;;;;;;14.27;8.65;;;;;;;30.71;19.87;99812.19;5013707;28;20033;-87
2023/02/25 10:43:53;;;;;;;17.83;9.00;;;;;;;31.15;19.24;99821.63;5036286;28;20098;-87
2023/02/25 10:46:36;;;;;;;18.13;9.25;;;;;;;30.95;19.58;99814.66;5000048;28;20049;-89
2023/02/25 10:49:13;;;;;;;15.55;8.93;;;;;;;31.02;19.37;99819.75;5018963;28;20030;-88
2023/02/25 10:51:59;;;;;;;15.65;8.70;;;;;;;30.48;20.15;99809.44;4981002;28;20417;-89
2023/02/25 10:54:26;;;;;;;20.83;9.10;;;;;;;30.92;19.53;99818.06;4979904;28;20034;-89
2023/02/25 10:56:52;;;;;;;20.75;8.48;;;;;;;30.78;19.52;99804.25;4994775;28;20038;-88
2023/02/25 10:59:20;;;;;;;18.33;8.40;;;;;;;29.99;20.11;99813.88;4972915;28;20407;-88
2023/02/25 11:01:46;;;;;;;19.40;9.65;;;;;;;30.20;20.21;99813.38;5005429;28;20069;-88
2023/02/25 11:04:22;;;;;;;19.52;9.15;;;;;;;29.75;20.76;99796.66;4964892;28;20062;-87
2023/02/25 11:06:48;;;;;;;22.25;9.10;;;;;;;30.31;20.42;99800.16;4994147;28;20092;-89
2023/02/25 11:09:17;;;;;;;18.40;8.52;;;;;;;30.02;20.51;99791.06;4994051;28;20065;-86
2023/02/25 11:11:55;;;;;;;22.10;8.63;;;;;;;28.97;21.67;99799.25;5005462;28;20042;-87
2023/02/25 11:14:32;;;;;;;16.88;9.35;;;;;;;27.72;23.26;99800.56;4995809;28;20467;-87
2023/02/25 11:17:06;;;;;;;24.60;9.60;;;;;;;27.74;23.35;99806.59;4993733;28;20037;-85
2023/02/25 11:19:37;;;;;;;19.10;9.90;;;;;;;27.20;23.49;99775.50;4996074;28;20104;-88
2023/02/25 11:22:30;;;;;;;22.65;9.32;;;;;;;26.40;24.73;99789.72;4964529;28;20506;-89
2023/02/25 11:25:10;;;;;;;18.02;9.23;;;;;;;27.13;24.13;99780.53;4998818;28;20078;-88
2023/02/25 11:27:38;;;;;;;21.58;8.75;;;;;;;28.08;22.92;99769.72;4992686;28;20084;-88
2023/02/25 11:30:06;;;;;;;20.67;8.98;;;;;;;27.71;23.09;99757.50;5014850;28;20026;-88
2023/02/25 11:32:32;;;;;;;16.48;8.52;;;;;;;27.67;22.75;99745.41;5007638;28;20034;-88
2023/02/25 11:35:09;;;;;;;18.75;8.05;;;;;;;28.21;22.29;99752.38;4981230;28;20045;-85